sensor_id;sensor_type;location;lat;lon;timestamp;P1;durP1;ratioP1;P2;durP2;ratioP2
66603;SDS011;53460;39.612;8.822;2023-02-03T00:00:26;7.18;;;4.60;;
66603;SDS011;53460;39.612;8.822;2023-02-03T00:02:53;11.38;;;4.72;;
66603;SDS011;53460;39.612;8.822;2023-02-03T00:05:19;7.72;;;4.65;;
66603;SDS011;53460;39.612;8.822;2023-02-03T00:07:45;9.05;;;4.55;;
66603;SDS011;53460;39.612;8.822;2023-02-03T00:10:11;10.10;;;5.05;;
66603;SDS011;53460;39.612;8.822;2023-02-03T00:12:37;7.78;;;5.38;;
66603;SDS011;53460;39.612;8.822;2023-02-03T00:15:03;10.52;;;6.28;;
66603;SDS011;53460;39.612;8.822;2023-02-03T00:17:29;19.17;;;12.85;;
66603;SDS011;53460;39.612;8.822;2023-02-03T00:19:54;8.55;;;5.20;;
66603;SDS011;53460;39.612;8.822;2023-02-03T00:22:20;10.38;;;4.68;;
66603;SDS011;53460;39.612;8.822;2023-02-03T00:24:46;9.68;;;5.00;;
66603;SDS011;53460;39.612;8.822;2023-02-03T00:27:11;11.77;;;7.15;;
66603;SDS011;53460;39.612;8.822;2023-02-03T00:29:38;11.20;;;6.30;;
66603;SDS011;53460;39.612;8.822;2023-02-03T00:32:04;10.27;;;5.40;;
66603;SDS011;53460;39.612;8.822;2023-02-03T00:34:30;6.63;;;5.30;;
66603;SDS011;53460;39.612;8.822;2023-02-03T00:36:56;8.75;;;5.13;;
66603;SDS011;53460;39.612;8.822;2023-02-03T00:39:22;14.60;;;5.95;;
66603;SDS011;53460;39.612;8.822;2023-02-03T00:41:48;11.00;;;5.53;;
66603;SDS011;53460;39.612;8.822;2023-02-03T00:44:13;10.80;;;6.47;;
66603;SDS011;53460;39.612;8.822;2023-02-03T00:46:39;14.60;;;6.97;;
66603;SDS011;53460;39.612;8.822;2023-02-03T00:49:05;12.07;;;5.75;;
66603;SDS011;53460;39.612;8.822;2023-02-03T00:51:32;9.10;;;4.72;;
66603;SDS011;53460;39.612;8.822;2023-02-03T00:53:58;11.23;;;4.70;;
66603;SDS011;53460;39.612;8.822;2023-02-03T00:56:24;7.43;;;3.97;;
66603;SDS011;53460;39.612;8.822;2023-02-03T00:58:50;9.00;;;4.95;;
66603;SDS011;53460;39.612;8.822;2023-02-03T01:01:16;6.90;;;4.65;;
66603;SDS011;53460;39.612;8.822;2023-02-03T01:03:41;8.45;;;4.63;;
66603;SDS011;53460;39.612;8.822;2023-02-03T01:06:15;8.60;;;5.18;;
66603;SDS011;53460;39.612;8.822;2023-02-03T01:08:43;11.85;;;5.75;;
66603;SDS011;53460;39.612;8.822;2023-02-03T01:11:10;9.15;;;5.22;;
66603;SDS011;53460;39.612;8.822;2023-02-03T01:13:39;7.05;;;5.57;;
66603;SDS011;53460;39.612;8.822;2023-02-03T01:16:07;7.20;;;5.40;;
66603;SDS011;53460;39.612;8.822;2023-02-03T01:18:34;10.10;;;5.30;;
66603;SDS011;53460;39.612;8.822;2023-02-03T01:21:10;10.15;;;5.47;;
66603;SDS011;53460;39.612;8.822;2023-02-03T01:23:38;9.82;;;6.40;;
66603;SDS011;53460;39.612;8.822;2023-02-03T01:26:04;10.60;;;7.63;;
66603;SDS011;53460;39.612;8.822;2023-02-03T01:28:32;11.95;;;7.05;;
66603;SDS011;53460;39.612;8.822;2023-02-03T01:31:14;15.43;;;9.10;;
66603;SDS011;53460;39.612;8.822;2023-02-03T01:36:11;11.20;;;6.82;;
66603;SDS011;53460;39.612;8.822;2023-02-03T01:38:37;8.05;;;5.38;;
66603;SDS011;53460;39.612;8.822;2023-02-03T01:41:03;11.23;;;6.07;;
66603;SDS011;53460;39.612;8.822;2023-02-03T01:43:35;8.82;;;5.43;;
66603;SDS011;53460;39.612;8.822;2023-02-03T01:51:35;12.15;;;5.75;;
66603;SDS011;53460;39.612;8.822;2023-02-03T01:54:03;8.63;;;5.00;;
66603;SDS011;53460;39.612;8.822;2023-02-03T01:56:31;11.77;;;6.15;;
66603;SDS011;53460;39.612;8.822;2023-02-03T01:59:00;11.38;;;5.05;;
66603;SDS011;53460;39.612;8.822;2023-02-03T02:01:28;6.88;;;5.45;;
66603;SDS011;53460;39.612;8.822;2023-02-03T02:03:56;11.45;;;5.90;;
66603;SDS011;53460;39.612;8.822;2023-02-03T02:06:24;11.05;;;5.90;;
66603;SDS011;53460;39.612;8.822;2023-02-03T02:08:50;7.43;;;5.68;;
66603;SDS011;53460;39.612;8.822;2023-02-03T02:11:17;14.40;;;7.10;;
66603;SDS011;53460;39.612;8.822;2023-02-03T02:13:45;13.07;;;6.10;;
66603;SDS011;53460;39.612;8.822;2023-02-03T02:16:17;10.30;;;5.28;;
66603;SDS011;53460;39.612;8.822;2023-02-03T02:39:22;8.48;;;4.40;;
66603;SDS011;53460;39.612;8.822;2023-02-03T02:42:09;10.80;;;5.15;;
66603;SDS011;53460;39.612;8.822;2023-02-03T02:44:43;8.23;;;4.43;;
66603;SDS011;53460;39.612;8.822;2023-02-03T02:47:18;9.68;;;4.30;;
66603;SDS011;53460;39.612;8.822;2023-02-03T02:49:59;8.10;;;3.97;;
66603;SDS011;53460;39.612;8.822;2023-02-03T02:52:30;5.95;;;3.58;;
66603;SDS011;53460;39.612;8.822;2023-02-03T02:55:02;5.97;;;3.42;;
66603;SDS011;53460;39.612;8.822;2023-02-03T02:57:32;11.73;;;3.15;;
66603;SDS011;53460;39.612;8.822;2023-02-03T03:00:01;3.90;;;2.35;;
66603;SDS011;53460;39.612;8.822;2023-02-03T03:02:33;7.45;;;2.67;;
66603;SDS011;53460;39.612;8.822;2023-02-03T03:05:01;5.03;;;2.28;;
66603;SDS011;53460;39.612;8.822;2023-02-03T03:07:40;5.75;;;2.63;;
66603;SDS011;53460;39.612;8.822;2023-02-03T03:10:13;13.05;;;2.70;;
66603;SDS011;53460;39.612;8.822;2023-02-03T03:12:47;5.03;;;2.40;;
66603;SDS011;53460;39.612;8.822;2023-02-03T03:15:22;6.03;;;2.58;;
66603;SDS011;53460;39.612;8.822;2023-02-03T03:22:53;4.38;;;2.40;;
66603;SDS011;53460;39.612;8.822;2023-02-03T03:25:24;6.70;;;2.70;;
66603;SDS011;53460;39.612;8.822;2023-02-03T03:27:55;13.02;;;3.22;;
66603;SDS011;53460;39.612;8.822;2023-02-03T03:30:26;3.78;;;2.50;;
66603;SDS011;53460;39.612;8.822;2023-02-03T03:32:56;8.05;;;3.35;;
66603;SDS011;53460;39.612;8.822;2023-02-03T03:35:22;5.70;;;2.90;;
66603;SDS011;53460;39.612;8.822;2023-02-03T03:37:57;8.50;;;2.88;;
66603;SDS011;53460;39.612;8.822;2023-02-03T03:40:29;3.30;;;2.65;;
66603;SDS011;53460;39.612;8.822;2023-02-03T03:45:41;10.00;;;3.10;;
66603;SDS011;53460;39.612;8.822;2023-02-03T03:51:01;5.95;;;3.20;;
66603;SDS011;53460;39.612;8.822;2023-02-03T03:53:35;5.65;;;3.17;;
66603;SDS011;53460;39.612;8.822;2023-02-03T03:56:05;4.72;;;3.72;;
66603;SDS011;53460;39.612;8.822;2023-02-03T03:58:34;5.03;;;3.70;;
66603;SDS011;53460;39.612;8.822;2023-02-03T04:01:04;9.38;;;3.22;;
66603;SDS011;53460;39.612;8.822;2023-02-03T04:03:36;7.00;;;3.40;;
66603;SDS011;53460;39.612;8.822;2023-02-03T04:06:07;5.13;;;3.35;;
66603;SDS011;53460;39.612;8.822;2023-02-03T04:08:32;10.00;;;3.47;;
66603;SDS011;53460;39.612;8.822;2023-02-03T04:10:58;7.97;;;3.50;;
66603;SDS011;53460;39.612;8.822;2023-02-03T04:13:24;7.93;;;4.38;;
66603;SDS011;53460;39.612;8.822;2023-02-03T04:15:49;7.45;;;4.38;;
66603;SDS011;53460;39.612;8.822;2023-02-03T04:18:15;5.00;;;3.58;;
66603;SDS011;53460;39.612;8.822;2023-02-03T04:20:41;9.07;;;4.63;;
66603;SDS011;53460;39.612;8.822;2023-02-03T04:23:07;6.03;;;4.20;;
66603;SDS011;53460;39.612;8.822;2023-02-03T04:25:33;9.82;;;4.70;;
66603;SDS011;53460;39.612;8.822;2023-02-03T04:27:59;10.23;;;4.07;;
66603;SDS011;53460;39.612;8.822;2023-02-03T04:30:25;10.57;;;3.67;;
66603;SDS011;53460;39.612;8.822;2023-02-03T04:32:51;6.72;;;3.45;;
66603;SDS011;53460;39.612;8.822;2023-02-03T04:35:17;6.00;;;3.90;;
66603;SDS011;53460;39.612;8.822;2023-02-03T04:37:43;9.25;;;4.65;;
66603;SDS011;53460;39.612;8.822;2023-02-03T04:40:09;6.90;;;3.42;;
66603;SDS011;53460;39.612;8.822;2023-02-03T04:42:35;10.02;;;3.85;;
66603;SDS011;53460;39.612;8.822;2023-02-03T04:45:03;6.07;;;3.33;;
66603;SDS011;53460;39.612;8.822;2023-02-03T04:47:29;7.63;;;3.17;;
66603;SDS011;53460;39.612;8.822;2023-02-03T04:49:54;9.73;;;3.65;;
66603;SDS011;53460;39.612;8.822;2023-02-03T04:52:20;5.22;;;2.80;;
66603;SDS011;53460;39.612;8.822;2023-02-03T04:54:46;6.05;;;2.72;;
66603;SDS011;53460;39.612;8.822;2023-02-03T04:57:11;5.97;;;3.20;;
66603;SDS011;53460;39.612;8.822;2023-02-03T04:59:37;10.02;;;4.63;;
66603;SDS011;53460;39.612;8.822;2023-02-03T05:02:03;9.90;;;5.90;;
66603;SDS011;53460;39.612;8.822;2023-02-03T05:04:29;8.50;;;5.18;;
66603;SDS011;53460;39.612;8.822;2023-02-03T05:06:55;7.40;;;4.78;;
66603;SDS011;53460;39.612;8.822;2023-02-03T05:09:22;9.05;;;5.05;;
66603;SDS011;53460;39.612;8.822;2023-02-03T05:11:48;7.40;;;4.40;;
66603;SDS011;53460;39.612;8.822;2023-02-03T05:14:14;7.47;;;4.13;;
66603;SDS011;53460;39.612;8.822;2023-02-03T05:16:39;11.02;;;3.88;;
66603;SDS011;53460;39.612;8.822;2023-02-03T05:19:05;7.25;;;4.07;;
66603;SDS011;53460;39.612;8.822;2023-02-03T05:21:31;11.30;;;4.05;;
66603;SDS011;53460;39.612;8.822;2023-02-03T05:23:57;7.18;;;3.75;;
66603;SDS011;53460;39.612;8.822;2023-02-03T05:26:23;9.82;;;3.90;;
66603;SDS011;53460;39.612;8.822;2023-02-03T05:28:48;18.70;;;12.52;;
66603;SDS011;53460;39.612;8.822;2023-02-03T05:31:14;18.98;;;13.05;;
66603;SDS011;53460;39.612;8.822;2023-02-03T05:33:40;13.43;;;10.43;;
66603;SDS011;53460;39.612;8.822;2023-02-03T05:36:05;13.40;;;8.48;;
66603;SDS011;53460;39.612;8.822;2023-02-03T05:38:31;11.55;;;9.43;;
66603;SDS011;53460;39.612;8.822;2023-02-03T05:40:57;16.63;;;9.70;;
66603;SDS011;53460;39.612;8.822;2023-02-03T05:43:41;14.20;;;11.50;;
66603;SDS011;53460;39.612;8.822;2023-02-03T05:46:06;24.08;;;18.42;;
66603;SDS011;53460;39.612;8.822;2023-02-03T05:48:32;23.63;;;14.68;;
66603;SDS011;53460;39.612;8.822;2023-02-03T05:50:59;12.63;;;9.93;;
66603;SDS011;53460;39.612;8.822;2023-02-03T05:53:25;13.75;;;10.05;;
66603;SDS011;53460;39.612;8.822;2023-02-03T05:55:51;8.30;;;5.22;;
66603;SDS011;53460;39.612;8.822;2023-02-03T05:58:17;9.77;;;4.32;;
66603;SDS011;53460;39.612;8.822;2023-02-03T06:00:43;9.80;;;5.20;;
66603;SDS011;53460;39.612;8.822;2023-02-03T06:03:09;12.32;;;6.05;;
66603;SDS011;53460;39.612;8.822;2023-02-03T06:05:35;9.25;;;6.65;;
66603;SDS011;53460;39.612;8.822;2023-02-03T06:08:08;10.07;;;6.75;;
66603;SDS011;53460;39.612;8.822;2023-02-03T06:10:34;9.13;;;7.03;;
66603;SDS011;53460;39.612;8.822;2023-02-03T06:13:10;10.57;;;6.60;;
66603;SDS011;53460;39.612;8.822;2023-02-03T06:15:37;11.75;;;7.20;;
66603;SDS011;53460;39.612;8.822;2023-02-03T06:18:03;21.38;;;15.70;;
66603;SDS011;53460;39.612;8.822;2023-02-03T06:20:29;23.55;;;16.38;;
66603;SDS011;53460;39.612;8.822;2023-02-03T06:22:55;30.77;;;22.27;;
66603;SDS011;53460;39.612;8.822;2023-02-03T06:25:21;28.10;;;21.40;;
66603;SDS011;53460;39.612;8.822;2023-02-03T06:27:48;26.05;;;18.98;;
66603;SDS011;53460;39.612;8.822;2023-02-03T06:30:14;29.17;;;19.63;;
66603;SDS011;53460;39.612;8.822;2023-02-03T06:32:40;38.03;;;19.15;;
66603;SDS011;53460;39.612;8.822;2023-02-03T06:35:06;26.92;;;16.85;;
66603;SDS011;53460;39.612;8.822;2023-02-03T06:37:32;21.58;;;15.90;;
66603;SDS011;53460;39.612;8.822;2023-02-03T06:39:59;33.65;;;16.50;;
66603;SDS011;53460;39.612;8.822;2023-02-03T06:42:25;19.63;;;14.05;;
66603;SDS011;53460;39.612;8.822;2023-02-03T06:44:51;20.55;;;13.88;;
66603;SDS011;53460;39.612;8.822;2023-02-03T06:47:17;19.45;;;14.20;;
66603;SDS011;53460;39.612;8.822;2023-02-03T06:49:43;19.50;;;13.18;;
66603;SDS011;53460;39.612;8.822;2023-02-03T06:52:09;14.82;;;12.10;;
66603;SDS011;53460;39.612;8.822;2023-02-03T06:54:34;16.77;;;11.02;;
66603;SDS011;53460;39.612;8.822;2023-02-03T06:57:00;18.15;;;12.48;;
66603;SDS011;53460;39.612;8.822;2023-02-03T06:59:26;17.88;;;12.32;;
66603;SDS011;53460;39.612;8.822;2023-02-03T07:01:51;13.90;;;10.95;;
66603;SDS011;53460;39.612;8.822;2023-02-03T07:04:17;20.98;;;12.48;;
66603;SDS011;53460;39.612;8.822;2023-02-03T07:06:43;20.00;;;14.77;;
66603;SDS011;53460;39.612;8.822;2023-02-03T07:09:08;21.13;;;13.57;;
66603;SDS011;53460;39.612;8.822;2023-02-03T07:11:34;19.48;;;13.18;;
66603;SDS011;53460;39.612;8.822;2023-02-03T07:13:59;16.17;;;11.80;;
66603;SDS011;53460;39.612;8.822;2023-02-03T07:16:25;19.80;;;12.05;;
66603;SDS011;53460;39.612;8.822;2023-02-03T07:18:51;22.08;;;16.42;;
66603;SDS011;53460;39.612;8.822;2023-02-03T07:21:17;25.15;;;15.65;;
66603;SDS011;53460;39.612;8.822;2023-02-03T07:23:45;32.85;;;20.75;;
66603;SDS011;53460;39.612;8.822;2023-02-03T07:26:11;36.28;;;23.80;;
66603;SDS011;53460;39.612;8.822;2023-02-03T07:28:37;42.00;;;26.90;;
66603;SDS011;53460;39.612;8.822;2023-02-03T07:31:02;28.25;;;20.40;;
66603;SDS011;53460;39.612;8.822;2023-02-03T07:33:35;21.15;;;16.58;;
66603;SDS011;53460;39.612;8.822;2023-02-03T07:36:01;29.23;;;16.05;;
66603;SDS011;53460;39.612;8.822;2023-02-03T07:38:27;33.53;;;17.98;;
66603;SDS011;53460;39.612;8.822;2023-02-03T07:40:54;40.60;;;25.63;;
66603;SDS011;53460;39.612;8.822;2023-02-03T07:43:20;41.72;;;26.73;;
66603;SDS011;53460;39.612;8.822;2023-02-03T07:45:46;37.10;;;28.25;;
66603;SDS011;53460;39.612;8.822;2023-02-03T07:48:12;41.67;;;28.77;;
66603;SDS011;53460;39.612;8.822;2023-02-03T07:50:37;49.60;;;35.55;;
66603;SDS011;53460;39.612;8.822;2023-02-03T07:53:03;35.85;;;25.63;;
66603;SDS011;53460;39.612;8.822;2023-02-03T07:55:30;25.98;;;17.98;;
66603;SDS011;53460;39.612;8.822;2023-02-03T07:57:57;22.38;;;17.88;;
66603;SDS011;53460;39.612;8.822;2023-02-03T08:00:23;28.85;;;17.40;;
66603;SDS011;53460;39.612;8.822;2023-02-03T08:02:49;22.17;;;12.65;;
66603;SDS011;53460;39.612;8.822;2023-02-03T08:05:15;27.80;;;14.70;;
66603;SDS011;53460;39.612;8.822;2023-02-03T08:07:42;33.70;;;19.98;;
66603;SDS011;53460;39.612;8.822;2023-02-03T08:10:09;47.55;;;23.70;;
66603;SDS011;53460;39.612;8.822;2023-02-03T08:12:36;38.40;;;21.25;;
66603;SDS011;53460;39.612;8.822;2023-02-03T08:15:03;30.77;;;15.93;;
66603;SDS011;53460;39.612;8.822;2023-02-03T08:17:29;15.07;;;9.27;;
66603;SDS011;53460;39.612;8.822;2023-02-03T08:19:55;17.90;;;8.20;;
66603;SDS011;53460;39.612;8.822;2023-02-03T08:22:20;14.30;;;6.55;;
66603;SDS011;53460;39.612;8.822;2023-02-03T08:24:46;14.60;;;7.82;;
66603;SDS011;53460;39.612;8.822;2023-02-03T08:38:18;8.85;;;4.28;;
66603;SDS011;53460;39.612;8.822;2023-02-03T08:40:43;10.32;;;3.50;;
66603;SDS011;53460;39.612;8.822;2023-02-03T08:43:09;13.60;;;7.53;;
66603;SDS011;53460;39.612;8.822;2023-02-03T08:45:35;9.32;;;5.75;;
66603;SDS011;53460;39.612;8.822;2023-02-03T08:48:01;10.98;;;5.85;;
66603;SDS011;53460;39.612;8.822;2023-02-03T08:50:26;8.63;;;5.07;;
66603;SDS011;53460;39.612;8.822;2023-02-03T08:52:52;10.02;;;6.00;;
66603;SDS011;53460;39.612;8.822;2023-02-03T08:55:18;11.07;;;5.75;;
66603;SDS011;53460;39.612;8.822;2023-02-03T08:57:43;9.23;;;4.68;;
66603;SDS011;53460;39.612;8.822;2023-02-03T09:00:10;9.10;;;4.72;;
66603;SDS011;53460;39.612;8.822;2023-02-03T09:02:36;5.88;;;3.70;;
66603;SDS011;53460;39.612;8.822;2023-02-03T09:05:02;5.88;;;2.38;;
66603;SDS011;53460;39.612;8.822;2023-02-03T09:07:27;5.30;;;2.28;;
66603;SDS011;53460;39.612;8.822;2023-02-03T09:09:53;6.90;;;3.78;;
66603;SDS011;53460;39.612;8.822;2023-02-03T09:12:19;5.43;;;2.28;;
66603;SDS011;53460;39.612;8.822;2023-02-03T09:14:44;8.23;;;3.10;;
66603;SDS011;53460;39.612;8.822;2023-02-03T09:17:10;12.88;;;3.95;;
66603;SDS011;53460;39.612;8.822;2023-02-03T09:19:36;11.70;;;6.35;;
66603;SDS011;53460;39.612;8.822;2023-02-03T09:22:01;8.30;;;3.03;;
66603;SDS011;53460;39.612;8.822;2023-02-03T09:24:27;6.13;;;3.30;;
66603;SDS011;53460;39.612;8.822;2023-02-03T09:26:53;6.38;;;2.80;;
66603;SDS011;53460;39.612;8.822;2023-02-03T09:29:20;4.05;;;2.33;;
66603;SDS011;53460;39.612;8.822;2023-02-03T09:31:47;5.78;;;2.53;;
66603;SDS011;53460;39.612;8.822;2023-02-03T09:34:17;6.53;;;2.65;;
66603;SDS011;53460;39.612;8.822;2023-02-03T09:36:44;6.72;;;3.28;;
66603;SDS011;53460;39.612;8.822;2023-02-03T09:39:09;6.70;;;5.35;;
66603;SDS011;53460;39.612;8.822;2023-02-03T09:46:49;8.65;;;2.60;;
66603;SDS011;53460;39.612;8.822;2023-02-03T09:49:37;54.65;;;49.28;;
66603;SDS011;53460;39.612;8.822;2023-02-03T09:52:20;4.82;;;2.00;;
66603;SDS011;53460;39.612;8.822;2023-02-03T09:54:57;5.78;;;3.40;;
66603;SDS011;53460;39.612;8.822;2023-02-03T09:57:28;5.03;;;2.20;;
66603;SDS011;53460;39.612;8.822;2023-02-03T09:59:57;5.05;;;2.10;;
66603;SDS011;53460;39.612;8.822;2023-02-03T10:02:44;5.03;;;2.08;;
66603;SDS011;53460;39.612;8.822;2023-02-03T10:11:25;5.07;;;1.75;;
66603;SDS011;53460;39.612;8.822;2023-02-03T10:16:47;3.67;;;2.22;;
66603;SDS011;53460;39.612;8.822;2023-02-03T10:19:43;4.63;;;2.97;;
66603;SDS011;53460;39.612;8.822;2023-02-03T10:22:24;4.45;;;2.35;;
66603;SDS011;53460;39.612;8.822;2023-02-03T10:27:56;4.72;;;2.33;;
66603;SDS011;53460;39.612;8.822;2023-02-03T10:30:28;4.90;;;2.13;;
66603;SDS011;53460;39.612;8.822;2023-02-03T10:33:01;5.18;;;2.35;;
66603;SDS011;53460;39.612;8.822;2023-02-03T10:38:11;4.90;;;2.50;;
66603;SDS011;53460;39.612;8.822;2023-02-03T10:40:43;4.95;;;3.55;;
66603;SDS011;53460;39.612;8.822;2023-02-03T10:43:09;4.50;;;2.28;;
66603;SDS011;53460;39.612;8.822;2023-02-03T10:45:54;8.85;;;2.70;;
66603;SDS011;53460;39.612;8.822;2023-02-03T10:48:19;5.03;;;2.20;;
66603;SDS011;53460;39.612;8.822;2023-02-03T10:50:47;9.85;;;2.08;;
66603;SDS011;53460;39.612;8.822;2023-02-03T10:55:44;6.45;;;2.20;;
66603;SDS011;53460;39.612;8.822;2023-02-03T10:58:14;5.03;;;2.03;;
66603;SDS011;53460;39.612;8.822;2023-02-03T11:00:47;5.55;;;2.28;;
66603;SDS011;53460;39.612;8.822;2023-02-03T11:06:02;5.50;;;2.60;;
66603;SDS011;53460;39.612;8.822;2023-02-03T11:08:29;3.92;;;1.85;;
66603;SDS011;53460;39.612;8.822;2023-02-03T11:11:07;8.00;;;2.83;;
66603;SDS011;53460;39.612;8.822;2023-02-03T11:13:34;5.28;;;2.05;;
66603;SDS011;53460;39.612;8.822;2023-02-03T11:16:33;4.53;;;2.00;;
66603;SDS011;53460;39.612;8.822;2023-02-03T11:21:59;3.65;;;2.10;;
66603;SDS011;53460;39.612;8.822;2023-02-03T11:29:23;4.35;;;2.08;;
66603;SDS011;53460;39.612;8.822;2023-02-03T11:31:55;10.43;;;2.17;;
66603;SDS011;53460;39.612;8.822;2023-02-03T11:34:24;7.93;;;3.80;;
66603;SDS011;53460;39.612;8.822;2023-02-03T11:36:53;6.95;;;3.35;;
66603;SDS011;53460;39.612;8.822;2023-02-03T11:42:00;11.95;;;3.55;;
66603;SDS011;53460;39.612;8.822;2023-02-03T11:44:27;10.30;;;5.90;;
66603;SDS011;53460;39.612;8.822;2023-02-03T11:47:02;7.72;;;2.15;;
66603;SDS011;53460;39.612;8.822;2023-02-03T11:52:32;7.75;;;3.30;;
66603;SDS011;53460;39.612;8.822;2023-02-03T11:55:06;4.35;;;2.03;;
66603;SDS011;53460;39.612;8.822;2023-02-03T11:57:42;10.35;;;5.53;;
66603;SDS011;53460;39.612;8.822;2023-02-03T12:03:17;5.82;;;2.78;;
66603;SDS011;53460;39.612;8.822;2023-02-03T12:05:58;3.50;;;2.25;;
66603;SDS011;53460;39.612;8.822;2023-02-03T12:09:31;8.85;;;3.35;;
66603;SDS011;53460;39.612;8.822;2023-02-03T12:30:32;6.07;;;2.30;;
66603;SDS011;53460;39.612;8.822;2023-02-03T12:33:09;3.67;;;1.70;;
66603;SDS011;53460;39.612;8.822;2023-02-03T12:35:49;6.25;;;3.90;;
66603;SDS011;53460;39.612;8.822;2023-02-03T12:38:35;8.55;;;3.58;;
66603;SDS011;53460;39.612;8.822;2023-02-03T12:41:11;9.50;;;7.25;;
66603;SDS011;53460;39.612;8.822;2023-02-03T12:43:44;18.10;;;13.93;;
66603;SDS011;53460;39.612;8.822;2023-02-03T12:51:48;15.55;;;13.63;;
66603;SDS011;53460;39.612;8.822;2023-02-03T12:56:57;5.95;;;3.20;;
66603;SDS011;53460;39.612;8.822;2023-02-03T12:59:31;17.83;;;13.23;;
66603;SDS011;53460;39.612;8.822;2023-02-03T13:02:00;11.70;;;6.43;;
66603;SDS011;53460;39.612;8.822;2023-02-03T13:04:46;10.43;;;6.35;;
66603;SDS011;53460;39.612;8.822;2023-02-03T13:10:18;4.88;;;3.70;;
66603;SDS011;53460;39.612;8.822;2023-02-03T13:12:54;5.95;;;3.97;;
66603;SDS011;53460;39.612;8.822;2023-02-03T13:15:36;4.15;;;2.75;;
66603;SDS011;53460;39.612;8.822;2023-02-03T13:21:08;4.45;;;1.90;;
66603;SDS011;53460;39.612;8.822;2023-02-03T13:23:36;3.50;;;1.63;;
66603;SDS011;53460;39.612;8.822;2023-02-03T13:26:34;4.57;;;1.70;;
66603;SDS011;53460;39.612;8.822;2023-02-03T13:32:06;7.03;;;3.45;;
66603;SDS011;53460;39.612;8.822;2023-02-03T13:40:10;4.75;;;2.50;;
66603;SDS011;53460;39.612;8.822;2023-02-03T13:42:52;7.70;;;3.17;;
66603;SDS011;53460;39.612;8.822;2023-02-03T13:45:36;8.35;;;5.25;;
66603;SDS011;53460;39.612;8.822;2023-02-03T13:48:27;4.75;;;2.50;;
66603;SDS011;53460;39.612;8.822;2023-02-03T13:51:06;5.18;;;2.08;;
66603;SDS011;53460;39.612;8.822;2023-02-03T13:53:39;6.20;;;3.30;;
66603;SDS011;53460;39.612;8.822;2023-02-03T13:56:07;11.48;;;6.38;;
66603;SDS011;53460;39.612;8.822;2023-02-03T14:01:37;6.93;;;3.28;;
66603;SDS011;53460;39.612;8.822;2023-02-03T14:04:05;9.95;;;2.83;;
66603;SDS011;53460;39.612;8.822;2023-02-03T14:11:45;8.18;;;2.72;;
66603;SDS011;53460;39.612;8.822;2023-02-03T14:19:10;8.32;;;2.72;;
66603;SDS011;53460;39.612;8.822;2023-02-03T14:24:22;8.55;;;2.63;;
66603;SDS011;53460;39.612;8.822;2023-02-03T14:26:56;7.28;;;3.40;;
66603;SDS011;53460;39.612;8.822;2023-02-03T14:32:04;15.93;;;4.63;;
66603;SDS011;53460;39.612;8.822;2023-02-03T14:34:33;6.00;;;3.55;;
66603;SDS011;53460;39.612;8.822;2023-02-03T14:45:30;9.52;;;3.30;;
66603;SDS011;53460;39.612;8.822;2023-02-03T14:51:02;10.32;;;3.95;;
66603;SDS011;53460;39.612;8.822;2023-02-03T15:02:28;6.65;;;2.65;;
66603;SDS011;53460;39.612;8.822;2023-02-03T15:07:37;10.80;;;4.65;;
66603;SDS011;53460;39.612;8.822;2023-02-03T15:12:43;22.92;;;4.03;;
66603;SDS011;53460;39.612;8.822;2023-02-03T15:15:12;10.82;;;2.95;;
66603;SDS011;53460;39.612;8.822;2023-02-03T15:17:48;23.55;;;3.85;;
66603;SDS011;53460;39.612;8.822;2023-02-03T15:20:35;10.80;;;2.53;;
66603;SDS011;53460;39.612;8.822;2023-02-03T15:23:27;8.05;;;2.70;;
66603;SDS011;53460;39.612;8.822;2023-02-03T15:25:55;18.00;;;3.40;;
66603;SDS011;53460;39.612;8.822;2023-02-03T15:28:24;6.75;;;2.58;;
66603;SDS011;53460;39.612;8.822;2023-02-03T15:30:55;21.70;;;3.80;;
66603;SDS011;53460;39.612;8.822;2023-02-03T15:33:24;6.57;;;2.65;;
66603;SDS011;53460;39.612;8.822;2023-02-03T15:35:55;8.25;;;3.30;;
66603;SDS011;53460;39.612;8.822;2023-02-03T15:38:30;7.30;;;2.30;;
66603;SDS011;53460;39.612;8.822;2023-02-03T15:41:01;5.78;;;2.38;;
66603;SDS011;53460;39.612;8.822;2023-02-03T15:51:12;10.50;;;2.80;;
66603;SDS011;53460;39.612;8.822;2023-02-03T15:53:59;9.43;;;4.35;;
66603;SDS011;53460;39.612;8.822;2023-02-03T15:56:32;8.93;;;4.10;;
66603;SDS011;53460;39.612;8.822;2023-02-03T15:59:03;8.75;;;2.58;;
66603;SDS011;53460;39.612;8.822;2023-02-03T16:01:29;7.82;;;3.25;;
66603;SDS011;53460;39.612;8.822;2023-02-03T16:03:55;9.90;;;5.68;;
66603;SDS011;53460;39.612;8.822;2023-02-03T16:09:00;13.75;;;4.15;;
66603;SDS011;53460;39.612;8.822;2023-02-03T16:11:36;11.57;;;6.05;;
66603;SDS011;53460;39.612;8.822;2023-02-03T16:14:05;12.80;;;4.57;;
66603;SDS011;53460;39.612;8.822;2023-02-03T16:19:03;6.20;;;3.40;;
66603;SDS011;53460;39.612;8.822;2023-02-03T16:21:42;8.38;;;3.25;;
66603;SDS011;53460;39.612;8.822;2023-02-03T16:35:54;14.35;;;4.30;;
66603;SDS011;53460;39.612;8.822;2023-02-03T16:41:29;12.90;;;7.70;;
66603;SDS011;53460;39.612;8.822;2023-02-03T16:44:13;18.13;;;11.38;;
66603;SDS011;53460;39.612;8.822;2023-02-03T16:46:58;22.08;;;14.88;;
66603;SDS011;53460;39.612;8.822;2023-02-03T16:49:42;19.13;;;15.43;;
66603;SDS011;53460;39.612;8.822;2023-02-03T16:52:27;15.25;;;8.13;;
66603;SDS011;53460;39.612;8.822;2023-02-03T16:54:53;14.15;;;7.38;;
66603;SDS011;53460;39.612;8.822;2023-02-03T16:57:18;16.33;;;6.05;;
66603;SDS011;53460;39.612;8.822;2023-02-03T16:59:44;13.10;;;6.07;;
66603;SDS011;53460;39.612;8.822;2023-02-03T17:02:10;13.68;;;5.28;;
66603;SDS011;53460;39.612;8.822;2023-02-03T17:04:35;7.68;;;4.97;;
66603;SDS011;53460;39.612;8.822;2023-02-03T17:07:01;14.93;;;7.03;;
66603;SDS011;53460;39.612;8.822;2023-02-03T17:09:29;18.50;;;11.52;;
66603;SDS011;53460;39.612;8.822;2023-02-03T17:12:02;15.45;;;9.38;;
66603;SDS011;53460;39.612;8.822;2023-02-03T17:14:28;19.70;;;11.60;;
66603;SDS011;53460;39.612;8.822;2023-02-03T17:16:54;13.43;;;8.27;;
66603;SDS011;53460;39.612;8.822;2023-02-03T17:19:20;16.67;;;11.60;;
66603;SDS011;53460;39.612;8.822;2023-02-03T17:21:45;19.80;;;14.80;;
66603;SDS011;53460;39.612;8.822;2023-02-03T17:24:12;14.10;;;12.52;;
66603;SDS011;53460;39.612;8.822;2023-02-03T17:26:38;22.83;;;19.08;;
66603;SDS011;53460;39.612;8.822;2023-02-03T17:29:04;26.67;;;17.58;;
66603;SDS011;53460;39.612;8.822;2023-02-03T17:31:30;25.70;;;19.30;;
66603;SDS011;53460;39.612;8.822;2023-02-03T17:33:56;32.20;;;24.15;;
66603;SDS011;53460;39.612;8.822;2023-02-03T17:36:22;56.22;;;40.28;;
66603;SDS011;53460;39.612;8.822;2023-02-03T17:38:52;32.25;;;21.85;;
66603;SDS011;53460;39.612;8.822;2023-02-03T17:41:21;14.52;;;8.65;;
66603;SDS011;53460;39.612;8.822;2023-02-03T17:43:48;10.57;;;7.25;;
66603;SDS011;53460;39.612;8.822;2023-02-03T17:46:16;13.05;;;7.35;;
66603;SDS011;53460;39.612;8.822;2023-02-03T17:48:44;12.13;;;6.00;;
66603;SDS011;53460;39.612;8.822;2023-02-03T17:51:11;12.13;;;5.60;;
66603;SDS011;53460;39.612;8.822;2023-02-03T17:53:42;16.20;;;9.98;;
66603;SDS011;53460;39.612;8.822;2023-02-03T17:56:12;14.93;;;9.63;;
66603;SDS011;53460;39.612;8.822;2023-02-03T17:58:45;22.48;;;11.57;;
66603;SDS011;53460;39.612;8.822;2023-02-03T18:01:15;16.38;;;7.32;;
66603;SDS011;53460;39.612;8.822;2023-02-03T18:03:46;12.57;;;7.35;;
66603;SDS011;53460;39.612;8.822;2023-02-03T18:06:14;13.25;;;6.85;;
66603;SDS011;53460;39.612;8.822;2023-02-03T18:08:41;21.75;;;11.75;;
66603;SDS011;53460;39.612;8.822;2023-02-03T18:11:07;21.20;;;16.98;;
66603;SDS011;53460;39.612;8.822;2023-02-03T18:13:37;27.70;;;17.67;;
66603;SDS011;53460;39.612;8.822;2023-02-03T18:16:04;11.88;;;7.10;;